aviador You're here:

LEVC Decoded Metar

VALENCIA in SPAIN
Report Time2015-03-05 06:00:00
UTC Time2015-03-05 06:27:30
Flight Rules vfr VFR
Wind300° at 09 kt
W.Decomp.*RWY 30: 9.0 kt HW 0.2 kt RCW
W.Rank300° ranks 13
Current wind is above 300° avg. (6.2)
Visibility9999 m
Phenomena:N/A
Clouds:N/A
Expected CloudBase > 5,200 ft AGL from Temp-Dew spread
CeilingNone
Temp08°C (ISA -7)
Dew Point-5°C (40% RH)
AAT2.2°C
QNH1031 hPa
Density Alt-1,135 ft
Elevation203 ft
Report Wrong Elevation
Raw Report
LEVC 050600Z 30009KT CAVOK 08/M05 Q1031 NOSIG=

Extra information for LEVC:More info

Metar Taf Metar & Taf Last 4 Metars F.Rules Stats Wind Profile Meteogram Temp Stats Airport Information Weather charts Add Link Nearby VenuesMetar ALERT Operation Metar Decoded Social comments

Webcam Valencia